Terminal Aerodrome Forecast
Issued by NWS Shreveport, LA

Home | Current Version | Previous Version | Text Only | Print | Product List | Glossary On
Versions: 1 2 3 4 5 6 7 8 9 10 11 12 13 14 15 16 17 18 19 20 21
000
FTUS44 KSHV 062330
TAFSHV
TAF
KSHV 062330Z 0700/0724 19007KT P6SM FEW060 SCT300
      TEMPO 0710/0714 5SM BR BKN008
     FM071400 19010KT P6SM BKN015
     FM071700 19012G19KT P6SM SCT035 SCT250=

USA.gov is the U.S. government's official web portal to all federal, state and local government web resources and services.